createdAt,value
2023-02-21T00:00:50.003Z,8.23
2023-02-21T00:06:20.963Z,8.43
2023-02-21T00:11:42.690Z,9.65
2023-02-21T00:17:05.558Z,10.40
2023-02-21T00:22:28.772Z,19.58
2023-02-21T00:27:50.094Z,10.38
2023-02-21T00:33:11.652Z,11.77
2023-02-21T00:38:35.191Z,9.27
2023-02-21T00:43:56.939Z,6.35
2023-02-21T00:49:19.999Z,7.68
2023-02-21T00:54:43.505Z,8.27
2023-02-21T01:00:05.297Z,12.10
2023-02-21T01:05:27.340Z,11.52
2023-02-21T01:10:50.625Z,6.53
2023-02-21T01:16:12.493Z,7.07
2023-02-21T01:21:36.666Z,7.20
2023-02-21T01:27:00.472Z,4.28
2023-02-21T01:32:22.166Z,7.38
2023-02-21T01:37:44.013Z,5.07
2023-02-21T01:43:07.271Z,6.05
2023-02-21T01:48:31.475Z,9.23
2023-02-21T01:53:53.422Z,6.70
2023-02-21T01:59:20.394Z,4.75
2023-02-21T02:04:42.175Z,4.82
2023-02-21T02:10:04.126Z,4.70
2023-02-21T02:15:26.004Z,3.90
2023-02-21T02:21:18.581Z,4.10
2023-02-21T02:27:10.861Z,4.40
2023-02-21T02:32:40.379Z,7.03
2023-02-21T02:37:53.791Z,6.00
2023-02-21T02:43:10.922Z,4.82
2023-02-21T02:48:24.223Z,7.65
2023-02-21T02:53:32.047Z,4.97
2023-02-21T02:58:42.708Z,4.35
2023-02-21T03:04:01.478Z,5.30
2023-02-21T03:09:14.948Z,4.15
2023-02-21T03:14:25.413Z,5.10
2023-02-21T03:19:34.521Z,5.20
2023-02-21T03:24:41.878Z,8.65
2023-02-21T03:29:47.818Z,2.85
2023-02-21T03:34:53.035Z,4.25
2023-02-21T03:40:01.122Z,1.67
2023-02-21T03:45:09.298Z,4.30
2023-02-21T03:50:15.771Z,2.20
2023-02-21T03:55:23.844Z,1.60
2023-02-21T04:00:29.795Z,2.47
2023-02-21T04:16:02.636Z,2.35
2023-02-21T04:21:10.556Z,1.40
2023-02-21T04:26:20.533Z,1.02
2023-02-21T04:31:30.935Z,1.17
2023-02-21T04:36:39.857Z,1.98
2023-02-21T04:41:47.833Z,1.50
2023-02-21T04:46:55.674Z,1.52
2023-02-21T04:52:03.573Z,1.92
2023-02-21T04:57:12.470Z,2.47
2023-02-21T05:02:20.273Z,2.78
2023-02-21T05:07:28.288Z,1.23
2023-02-21T05:12:38.204Z,3.88
2023-02-21T05:17:47.066Z,2.85
2023-02-21T05:22:55.999Z,2.00
2023-02-21T05:28:06.713Z,3.38
2023-02-21T05:33:13.931Z,3.72
2023-02-21T05:38:23.607Z,3.45
2023-02-21T05:43:34.345Z,2.45
2023-02-21T05:48:41.716Z,4.95
2023-02-21T05:53:49.850Z,2.92
2023-02-21T05:58:59.061Z,3.33
2023-02-21T06:04:08.251Z,2.55
2023-02-21T06:09:23.852Z,2.47
2023-02-21T06:14:47.427Z,1.95
2023-02-21T06:19:54.750Z,5.88
2023-02-21T06:25:02.463Z,3.00
2023-02-21T06:30:13.177Z,2.90
2023-02-21T06:35:20.452Z,1.98
2023-02-21T06:40:26.618Z,3.40
2023-02-21T06:45:33.715Z,3.17
2023-02-21T06:50:40.452Z,3.80
2023-02-21T06:55:48.282Z,2.10
2023-02-21T07:00:58.601Z,4.90
2023-02-21T07:06:05.837Z,2.67
2023-02-21T07:11:12.654Z,2.15
2023-02-21T07:16:22.294Z,3.00
2023-02-21T07:21:29.470Z,11.13
2023-02-21T07:26:37.955Z,6.53
2023-02-21T07:31:45.877Z,3.35
2023-02-21T07:36:53.486Z,13.98
2023-02-21T07:42:01.322Z,22.10
2023-02-21T07:47:12.078Z,11.27
2023-02-21T07:52:20.063Z,8.55
2023-02-21T07:57:27.151Z,16.63
2023-02-21T08:02:36.292Z,7.65
2023-02-21T08:07:42.798Z,5.25
2023-02-21T08:12:48.962Z,4.90
2023-02-21T08:17:55.830Z,12.82
2023-02-21T08:23:02.041Z,10.05
2023-02-21T08:28:09.598Z,7.95
2023-02-21T08:33:18.999Z,2.80
2023-02-21T08:38:25.873Z,4.78
2023-02-21T08:43:33.212Z,9.80
2023-02-21T08:48:40.805Z,4.57
2023-02-21T08:53:47.316Z,6.00
2023-02-21T08:58:55.794Z,9.38
2023-02-21T09:04:05.210Z,2.38
2023-02-21T09:09:12.997Z,2.13
2023-02-21T09:14:20.965Z,3.05
2023-02-21T09:19:29.642Z,3.40
2023-02-21T09:24:36.994Z,4.05
2023-02-21T09:29:46.710Z,3.10
2023-02-21T09:34:54.542Z,3.25
2023-02-21T09:40:01.813Z,2.05
2023-02-21T09:45:12.820Z,1.08
2023-02-21T09:50:32.016Z,2.53
2023-02-21T09:55:42.561Z,3.90
2023-02-21T10:00:50.868Z,2.08
2023-02-21T10:06:05.698Z,3.83
2023-02-21T10:11:31.879Z,1.70
2023-02-21T10:16:45.351Z,1.33
2023-02-21T10:21:59.287Z,1.15
2023-02-21T10:27:08.711Z,2.53
2023-02-21T10:32:16.261Z,4.78
2023-02-21T10:37:39.632Z,1.38
2023-02-21T10:42:52.042Z,3.85
2023-02-21T10:48:03.752Z,3.83
2023-02-21T10:53:25.502Z,7.65
2023-02-21T10:58:33.453Z,6.15
2023-02-21T11:03:46.362Z,13.55
2023-02-21T11:08:53.609Z,6.93
2023-02-21T11:14:21.840Z,2.83
2023-02-21T11:19:28.243Z,3.22
2023-02-21T11:24:37.711Z,5.38
2023-02-21T11:29:46.088Z,2.20
2023-02-21T11:34:53.076Z,2.42
2023-02-21T11:40:02.498Z,3.20
2023-02-21T11:45:27.179Z,2.85
2023-02-21T11:50:40.963Z,1.80
2023-02-21T11:56:00.903Z,2.40
2023-02-21T12:01:14.325Z,4.38
2023-02-21T12:06:29.545Z,4.40
2023-02-21T12:12:00.592Z,2.92
2023-02-21T12:17:22.584Z,3.00
2023-02-21T12:22:48.507Z,4.45
2023-02-21T12:28:02.472Z,2.67
2023-02-21T12:33:25.076Z,4.10
2023-02-21T12:38:41.462Z,4.72
2023-02-21T12:44:02.619Z,3.80
2023-02-21T12:49:13.449Z,4.60
2023-02-21T12:54:25.774Z,9.43
2023-02-21T12:59:42.526Z,5.13
2023-02-21T13:04:54.904Z,3.85
2023-02-21T13:10:08.251Z,6.05
2023-02-21T13:15:23.490Z,7.03
2023-02-21T13:20:33.597Z,4.05
2023-02-21T13:25:53.812Z,5.78
2023-02-21T13:31:05.426Z,3.65
2023-02-21T13:36:28.144Z,4.18
2023-02-21T13:41:40.672Z,6.32
2023-02-21T13:47:12.136Z,5.65
2023-02-21T13:52:50.005Z,5.10
2023-02-21T13:58:39.442Z,3.42
2023-02-21T14:03:47.963Z,6.85
2023-02-21T14:09:01.408Z,7.78
2023-02-21T14:14:21.576Z,6.55
2023-02-21T14:19:36.236Z,4.57
2023-02-21T14:24:46.647Z,7.57
2023-02-21T14:30:30.249Z,10.35
2023-02-21T14:35:40.649Z,4.45
2023-02-21T14:40:57.813Z,7.95
2023-02-21T14:46:34.142Z,7.95
2023-02-21T14:51:59.362Z,5.82
2023-02-21T14:57:24.789Z,5.65
2023-02-21T15:02:35.868Z,6.50
2023-02-21T15:07:59.162Z,4.18
2023-02-21T15:13:06.379Z,6.20
2023-02-21T15:18:12.778Z,4.63
2023-02-21T15:23:30.622Z,6.45
2023-02-21T15:28:35.266Z,12.35
2023-02-21T15:33:42.008Z,10.18
2023-02-21T15:38:51.505Z,8.63
2023-02-21T15:44:01.568Z,13.45
2023-02-21T15:49:07.116Z,6.00
2023-02-21T15:54:26.234Z,7.57
2023-02-21T15:59:31.479Z,7.93
2023-02-21T16:04:38.095Z,12.75
2023-02-21T16:09:48.268Z,9.27
2023-02-21T16:14:59.421Z,13.77
2023-02-21T16:20:16.734Z,12.65
2023-02-21T16:25:24.838Z,6.85
2023-02-21T16:30:32.452Z,10.40
2023-02-21T16:35:36.919Z,8.75
2023-02-21T16:40:43.353Z,7.68
2023-02-21T16:45:49.863Z,9.95
2023-02-21T16:50:54.468Z,10.95
2023-02-21T16:56:01.459Z,10.77
2023-02-21T17:01:09.260Z,11.57
2023-02-21T17:06:18.341Z,11.43
2023-02-21T17:11:24.241Z,9.85
2023-02-21T17:21:33.127Z,12.02
2023-02-21T17:26:39.200Z,12.25
2023-02-21T17:31:43.721Z,15.48
2023-02-21T17:36:50.650Z,14.25
2023-02-21T17:41:56.858Z,11.88
2023-02-21T17:47:01.942Z,10.73
2023-02-21T17:52:06.837Z,16.42
2023-02-21T17:57:12.879Z,16.92
2023-02-21T18:02:19.062Z,13.38
2023-02-21T18:07:24.967Z,16.65
2023-02-21T18:17:35.337Z,9.97
2023-02-21T18:22:40.277Z,12.30
2023-02-21T18:27:46.805Z,12.97
2023-02-21T18:32:51.378Z,10.30
2023-02-21T18:37:55.867Z,8.15
2023-02-21T18:43:02.139Z,5.80
2023-02-21T18:48:09.610Z,8.82
2023-02-21T18:53:17.365Z,11.75
2023-02-21T18:58:23.318Z,8.57
2023-02-21T19:08:32.293Z,17.85
2023-02-21T19:13:38.182Z,10.80
2023-02-21T19:18:42.782Z,11.98
2023-02-21T19:23:47.435Z,15.73
2023-02-21T19:28:54.111Z,11.02
2023-02-21T19:33:58.588Z,11.50
2023-02-21T19:39:04.501Z,8.20
2023-02-21T19:44:10.489Z,13.07
2023-02-21T19:49:18.144Z,15.30
2023-02-21T19:54:27.089Z,12.60
2023-02-21T19:59:33.975Z,12.80
2023-02-21T20:04:38.686Z,15.90
2023-02-21T20:09:43.364Z,14.20
2023-02-21T20:14:49.486Z,16.83
2023-02-21T20:19:53.840Z,11.88
2023-02-21T20:24:58.262Z,11.43
2023-02-21T20:30:05.595Z,11.13
2023-02-21T20:35:12.754Z,15.65
2023-02-21T20:40:18.841Z,24.25
2023-02-21T20:45:24.758Z,20.65
2023-02-21T20:50:30.531Z,23.52
2023-02-21T21:00:43.634Z,22.58
2023-02-21T21:05:50.715Z,30.25
2023-02-21T21:10:55.188Z,28.50
2023-02-21T21:16:01.345Z,72.50
2023-02-21T21:21:06.086Z,65.15
2023-02-21T21:26:12.223Z,67.93
2023-02-21T21:31:19.431Z,146.93
2023-02-21T21:36:26.685Z,128.02
2023-02-21T21:41:34.759Z,112.65
2023-02-21T21:46:46.899Z,73.88
2023-02-21T21:51:51.655Z,32.65
2023-02-21T21:56:56.671Z,24.30
2023-02-21T22:02:02.719Z,21.03
2023-02-21T22:07:08.123Z,42.83
2023-02-21T22:12:18.717Z,38.13
2023-02-21T22:17:24.896Z,31.15
2023-02-21T22:22:29.816Z,23.48
2023-02-21T22:27:35.002Z,32.53
2023-02-21T22:32:42.803Z,25.33
2023-02-21T22:37:50.620Z,34.53
2023-02-21T22:42:56.407Z,24.40
2023-02-21T22:48:04.170Z,22.25
2023-02-21T22:53:13.171Z,23.02
2023-02-21T22:58:21.377Z,9.57
2023-02-21T23:03:28.885Z,15.82
2023-02-21T23:08:35.381Z,12.48
2023-02-21T23:13:39.970Z,29.00
2023-02-21T23:18:46.053Z,14.98
2023-02-21T23:23:51.710Z,21.83
2023-02-21T23:28:56.255Z,14.18
2023-02-21T23:34:02.245Z,26.48
2023-02-21T23:39:09.242Z,16.20
2023-02-21T23:44:14.966Z,11.90
2023-02-21T23:49:20.988Z,20.58
2023-02-21T23:54:26.177Z,21.27
2023-02-21T23:59:32.203Z,19.73
